sensor_id;sensor_type;location;lat;lon;timestamp;temperature;humidity
70807;DHT22;58882;52.170;5.386;2023-08-31T00:01:03;21.20;49.00
70807;DHT22;58882;52.170;5.386;2023-08-31T00:03:31;21.20;50.10
70807;DHT22;58882;52.170;5.386;2023-08-31T00:06:01;21.20;49.00
70807;DHT22;58882;52.170;5.386;2023-08-31T00:08:29;21.20;49.10
70807;DHT22;58882;52.170;5.386;2023-08-31T00:10:59;21.10;49.00
70807;DHT22;58882;52.170;5.386;2023-08-31T00:13:29;21.10;49.20
70807;DHT22;58882;52.170;5.386;2023-08-31T00:15:57;21.10;49.20
70807;DHT22;58882;52.170;5.386;2023-08-31T00:18:25;21.10;49.40
70807;DHT22;58882;52.170;5.386;2023-08-31T00:20:52;21.10;49.50
70807;DHT22;58882;52.170;5.386;2023-08-31T00:23:20;21.10;49.50
70807;DHT22;58882;52.170;5.386;2023-08-31T00:25:47;21.10;49.60
70807;DHT22;58882;52.170;5.386;2023-08-31T00:28:19;21.10;49.80
70807;DHT22;58882;52.170;5.386;2023-08-31T00:30:46;21.00;49.70
70807;DHT22;58882;52.170;5.386;2023-08-31T00:33:14;21.10;49.80
70807;DHT22;58882;52.170;5.386;2023-08-31T00:35:41;21.10;49.80
70807;DHT22;58882;52.170;5.386;2023-08-31T00:38:13;21.10;49.80
70807;DHT22;58882;52.170;5.386;2023-08-31T00:40:42;21.10;49.70
70807;DHT22;58882;52.170;5.386;2023-08-31T00:43:13;21.00;49.70
70807;DHT22;58882;52.170;5.386;2023-08-31T00:45:43;21.00;49.70
70807;DHT22;58882;52.170;5.386;2023-08-31T00:48:14;21.00;49.80
70807;DHT22;58882;52.170;5.386;2023-08-31T00:50:41;21.00;49.80
70807;DHT22;58882;52.170;5.386;2023-08-31T00:53:08;21.00;49.90
70807;DHT22;58882;52.170;5.386;2023-08-31T00:55:36;21.00;50.10
70807;DHT22;58882;52.170;5.386;2023-08-31T00:58:04;21.00;50.10
70807;DHT22;58882;52.170;5.386;2023-08-31T01:00:46;21.00;50.10
70807;DHT22;58882;52.170;5.386;2023-08-31T01:06:13;20.90;50.40
70807;DHT22;58882;52.170;5.386;2023-08-31T01:08:56;20.90;50.40
70807;DHT22;58882;52.170;5.386;2023-08-31T01:11:34;20.90;50.50
70807;DHT22;58882;52.170;5.386;2023-08-31T01:14:16;20.90;50.50
70807;DHT22;58882;52.170;5.386;2023-08-31T01:16:49;20.90;50.50
70807;DHT22;58882;52.170;5.386;2023-08-31T01:22:11;20.90;50.60
70807;DHT22;58882;52.170;5.386;2023-08-31T01:24:40;20.90;50.70
70807;DHT22;58882;52.170;5.386;2023-08-31T01:27:07;20.90;50.60
70807;DHT22;58882;52.170;5.386;2023-08-31T01:29:34;20.90;50.60
70807;DHT22;58882;52.170;5.386;2023-08-31T01:32:05;20.90;50.70
70807;DHT22;58882;52.170;5.386;2023-08-31T01:34:34;20.90;50.70
70807;DHT22;58882;52.170;5.386;2023-08-31T01:37:17;20.90;50.70
70807;DHT22;58882;52.170;5.386;2023-08-31T01:42:47;20.90;50.90
70807;DHT22;58882;52.170;5.386;2023-08-31T01:45:18;20.90;50.80
70807;DHT22;58882;52.170;5.386;2023-08-31T01:47:48;20.80;50.70
70807;DHT22;58882;52.170;5.386;2023-08-31T01:50:17;20.80;50.90
70807;DHT22;58882;52.170;5.386;2023-08-31T01:52:45;20.80;51.20
70807;DHT22;58882;52.170;5.386;2023-08-31T01:55:11;20.80;51.00
70807;DHT22;58882;52.170;5.386;2023-08-31T01:57:42;20.70;51.00
70807;DHT22;58882;52.170;5.386;2023-08-31T02:00:17;20.60;52.20
70807;DHT22;58882;52.170;5.386;2023-08-31T02:02:46;20.60;51.30
70807;DHT22;58882;52.170;5.386;2023-08-31T02:05:13;20.60;51.30
70807;DHT22;58882;52.170;5.386;2023-08-31T02:07:40;20.50;51.60
70807;DHT22;58882;52.170;5.386;2023-08-31T02:10:07;20.50;51.80
70807;DHT22;58882;52.170;5.386;2023-08-31T02:12:34;20.50;51.80
70807;DHT22;58882;52.170;5.386;2023-08-31T02:15:04;20.50;52.00
70807;DHT22;58882;52.170;5.386;2023-08-31T02:17:33;20.50;52.10
70807;DHT22;58882;52.170;5.386;2023-08-31T02:20:02;20.50;52.10
70807;DHT22;58882;52.170;5.386;2023-08-31T02:22:33;20.60;52.20
70807;DHT22;58882;52.170;5.386;2023-08-31T02:25:00;20.60;52.40
70807;DHT22;58882;52.170;5.386;2023-08-31T02:27:30;20.60;52.50
70807;DHT22;58882;52.170;5.386;2023-08-31T02:29:57;20.50;52.50
70807;DHT22;58882;52.170;5.386;2023-08-31T02:32:24;20.50;52.70
70807;DHT22;58882;52.170;5.386;2023-08-31T02:34:51;20.60;52.80
70807;DHT22;58882;52.170;5.386;2023-08-31T02:37:17;20.60;52.70
70807;DHT22;58882;52.170;5.386;2023-08-31T02:39:44;20.60;52.60
70807;DHT22;58882;52.170;5.386;2023-08-31T02:42:11;20.60;52.60
70807;DHT22;58882;52.170;5.386;2023-08-31T02:44:38;20.60;52.60
70807;DHT22;58882;52.170;5.386;2023-08-31T02:47:05;20.70;52.50
70807;DHT22;58882;52.170;5.386;2023-08-31T02:49:32;20.70;52.30
70807;DHT22;58882;52.170;5.386;2023-08-31T02:51:58;20.70;52.40
70807;DHT22;58882;52.170;5.386;2023-08-31T02:54:25;20.70;52.40
70807;DHT22;58882;52.170;5.386;2023-08-31T02:56:52;20.70;52.30
70807;DHT22;58882;52.170;5.386;2023-08-31T02:59:19;20.70;52.40
70807;DHT22;58882;52.170;5.386;2023-08-31T03:01:46;20.70;52.30
70807;DHT22;58882;52.170;5.386;2023-08-31T03:04:13;20.70;52.40
70807;DHT22;58882;52.170;5.386;2023-08-31T03:06:40;20.80;52.30
70807;DHT22;58882;52.170;5.386;2023-08-31T03:09:07;20.80;52.30
70807;DHT22;58882;52.170;5.386;2023-08-31T03:11:34;20.80;52.20
70807;DHT22;58882;52.170;5.386;2023-08-31T03:14:01;20.80;52.20
70807;DHT22;58882;52.170;5.386;2023-08-31T03:16:28;20.80;52.20
70807;DHT22;58882;52.170;5.386;2023-08-31T03:18:55;20.80;52.20
70807;DHT22;58882;52.170;5.386;2023-08-31T03:21:23;20.80;52.10
70807;DHT22;58882;52.170;5.386;2023-08-31T03:23:50;20.90;53.00
70807;DHT22;58882;52.170;5.386;2023-08-31T03:26:17;20.90;52.80
70807;DHT22;58882;52.170;5.386;2023-08-31T03:28:44;20.90;52.00
70807;DHT22;58882;52.170;5.386;2023-08-31T03:31:11;21.00;52.00
70807;DHT22;58882;52.170;5.386;2023-08-31T03:33:38;21.00;51.80
70807;DHT22;58882;52.170;5.386;2023-08-31T03:36:05;21.00;51.70
70807;DHT22;58882;52.170;5.386;2023-08-31T03:38:33;21.00;51.60
70807;DHT22;58882;52.170;5.386;2023-08-31T03:41:09;21.00;51.50
70807;DHT22;58882;52.170;5.386;2023-08-31T03:43:36;21.00;51.60
70807;DHT22;58882;52.170;5.386;2023-08-31T03:46:02;21.00;51.60
70807;DHT22;58882;52.170;5.386;2023-08-31T03:48:29;21.00;51.60
70807;DHT22;58882;52.170;5.386;2023-08-31T03:50:57;21.00;51.50
70807;DHT22;58882;52.170;5.386;2023-08-31T03:53:24;21.00;51.30
70807;DHT22;58882;52.170;5.386;2023-08-31T03:55:55;20.90;51.30
70807;DHT22;58882;52.170;5.386;2023-08-31T03:58:23;20.90;52.50
70807;DHT22;58882;52.170;5.386;2023-08-31T04:00:52;20.90;51.60
70807;DHT22;58882;52.170;5.386;2023-08-31T04:03:19;20.90;51.60
70807;DHT22;58882;52.170;5.386;2023-08-31T04:05:47;20.90;51.30
70807;DHT22;58882;52.170;5.386;2023-08-31T04:08:14;20.90;51.30
70807;DHT22;58882;52.170;5.386;2023-08-31T04:10:41;20.90;51.70
70807;DHT22;58882;52.170;5.386;2023-08-31T04:13:08;20.90;51.90
70807;DHT22;58882;52.170;5.386;2023-08-31T04:15:34;20.80;51.90
70807;DHT22;58882;52.170;5.386;2023-08-31T04:18:01;20.90;52.00
70807;DHT22;58882;52.170;5.386;2023-08-31T04:20:29;20.80;51.90
70807;DHT22;58882;52.170;5.386;2023-08-31T04:22:56;20.80;51.90
70807;DHT22;58882;52.170;5.386;2023-08-31T04:25:22;20.80;51.90
70807;DHT22;58882;52.170;5.386;2023-08-31T04:27:49;20.80;52.00
70807;DHT22;58882;52.170;5.386;2023-08-31T04:30:16;20.80;52.00
70807;DHT22;58882;52.170;5.386;2023-08-31T04:32:44;20.80;52.20
70807;DHT22;58882;52.170;5.386;2023-08-31T04:35:12;20.80;52.20
70807;DHT22;58882;52.170;5.386;2023-08-31T04:37:38;20.80;52.30
70807;DHT22;58882;52.170;5.386;2023-08-31T04:40:06;20.80;52.30
70807;DHT22;58882;52.170;5.386;2023-08-31T04:42:35;20.80;52.30
70807;DHT22;58882;52.170;5.386;2023-08-31T04:45:02;20.80;52.20
70807;DHT22;58882;52.170;5.386;2023-08-31T04:47:29;20.80;52.20
70807;DHT22;58882;52.170;5.386;2023-08-31T04:49:56;20.80;52.30
70807;DHT22;58882;52.170;5.386;2023-08-31T04:52:23;20.80;52.20
70807;DHT22;58882;52.170;5.386;2023-08-31T04:54:50;20.80;52.20
70807;DHT22;58882;52.170;5.386;2023-08-31T04:57:17;20.80;52.20
70807;DHT22;58882;52.170;5.386;2023-08-31T04:59:44;20.80;53.30
70807;DHT22;58882;52.170;5.386;2023-08-31T05:02:11;20.80;52.30
70807;DHT22;58882;52.170;5.386;2023-08-31T05:04:37;20.80;52.10
70807;DHT22;58882;52.170;5.386;2023-08-31T05:07:04;20.80;52.00
70807;DHT22;58882;52.170;5.386;2023-08-31T05:09:31;20.80;52.10
70807;DHT22;58882;52.170;5.386;2023-08-31T05:11:58;20.80;52.20
70807;DHT22;58882;52.170;5.386;2023-08-31T05:14:26;20.80;52.30
70807;DHT22;58882;52.170;5.386;2023-08-31T05:16:52;20.80;52.40
70807;DHT22;58882;52.170;5.386;2023-08-31T05:19:19;20.80;52.40
70807;DHT22;58882;52.170;5.386;2023-08-31T05:21:46;20.80;52.20
70807;DHT22;58882;52.170;5.386;2023-08-31T05:24:13;20.70;52.30
70807;DHT22;58882;52.170;5.386;2023-08-31T05:26:40;20.70;52.40
70807;DHT22;58882;52.170;5.386;2023-08-31T05:29:07;20.80;52.50
70807;DHT22;58882;52.170;5.386;2023-08-31T05:31:34;20.80;52.50
70807;DHT22;58882;52.170;5.386;2023-08-31T05:34:01;20.80;52.60
70807;DHT22;58882;52.170;5.386;2023-08-31T05:36:27;20.80;52.70
70807;DHT22;58882;52.170;5.386;2023-08-31T05:38:54;20.80;52.70
70807;DHT22;58882;52.170;5.386;2023-08-31T05:41:21;20.80;52.60
70807;DHT22;58882;52.170;5.386;2023-08-31T05:43:48;20.80;52.60
70807;DHT22;58882;52.170;5.386;2023-08-31T05:46:15;20.90;52.50
70807;DHT22;58882;52.170;5.386;2023-08-31T05:48:42;20.90;52.40
70807;DHT22;58882;52.170;5.386;2023-08-31T05:51:09;20.90;52.40
70807;DHT22;58882;52.170;5.386;2023-08-31T05:53:36;20.90;52.40
70807;DHT22;58882;52.170;5.386;2023-08-31T05:56:04;20.90;53.40
70807;DHT22;58882;52.170;5.386;2023-08-31T05:58:32;20.90;52.40
70807;DHT22;58882;52.170;5.386;2023-08-31T06:01:04;20.90;52.30
70807;DHT22;58882;52.170;5.386;2023-08-31T06:03:31;21.00;52.40
70807;DHT22;58882;52.170;5.386;2023-08-31T06:05:59;21.00;52.30
70807;DHT22;58882;52.170;5.386;2023-08-31T06:08:26;21.00;52.20
70807;DHT22;58882;52.170;5.386;2023-08-31T06:10:53;21.00;53.30
70807;DHT22;58882;52.170;5.386;2023-08-31T06:13:20;21.00;52.20
70807;DHT22;58882;52.170;5.386;2023-08-31T06:15:46;21.00;52.10
70807;DHT22;58882;52.170;5.386;2023-08-31T06:18:13;21.10;52.20
70807;DHT22;58882;52.170;5.386;2023-08-31T06:20:40;21.10;52.10
70807;DHT22;58882;52.170;5.386;2023-08-31T06:23:09;21.20;52.10
70807;DHT22;58882;52.170;5.386;2023-08-31T06:25:36;21.20;51.90
70807;DHT22;58882;52.170;5.386;2023-08-31T06:28:03;21.20;51.70
70807;DHT22;58882;52.170;5.386;2023-08-31T06:30:32;21.30;51.70
70807;DHT22;58882;52.170;5.386;2023-08-31T06:32:58;21.30;51.60
70807;DHT22;58882;52.170;5.386;2023-08-31T06:35:25;21.30;51.50
70807;DHT22;58882;52.170;5.386;2023-08-31T06:37:52;21.40;51.50
70807;DHT22;58882;52.170;5.386;2023-08-31T06:40:19;21.40;51.30
70807;DHT22;58882;52.170;5.386;2023-08-31T06:42:46;21.40;51.30
70807;DHT22;58882;52.170;5.386;2023-08-31T06:45:13;21.40;51.20
70807;DHT22;58882;52.170;5.386;2023-08-31T06:47:39;21.50;51.20
70807;DHT22;58882;52.170;5.386;2023-08-31T06:50:07;21.50;51.20
70807;DHT22;58882;52.170;5.386;2023-08-31T06:52:33;21.60;51.00
70807;DHT22;58882;52.170;5.386;2023-08-31T06:55:01;21.70;51.00
70807;DHT22;58882;52.170;5.386;2023-08-31T06:57:29;21.90;50.70
70807;DHT22;58882;52.170;5.386;2023-08-31T06:59:56;22.10;51.40
70807;DHT22;58882;52.170;5.386;2023-08-31T07:02:26;22.40;50.00
70807;DHT22;58882;52.170;5.386;2023-08-31T07:04:53;22.70;49.40
70807;DHT22;58882;52.170;5.386;2023-08-31T07:07:20;23.00;49.10
70807;DHT22;58882;52.170;5.386;2023-08-31T07:09:47;23.30;48.10
70807;DHT22;58882;52.170;5.386;2023-08-31T07:12:17;23.50;47.30
70807;DHT22;58882;52.170;5.386;2023-08-31T07:14:44;23.60;46.90
70807;DHT22;58882;52.170;5.386;2023-08-31T07:17:11;23.60;46.80
70807;DHT22;58882;52.170;5.386;2023-08-31T07:19:38;23.60;46.90
70807;DHT22;58882;52.170;5.386;2023-08-31T07:22:05;23.60;46.70
70807;DHT22;58882;52.170;5.386;2023-08-31T07:24:33;23.60;46.70
70807;DHT22;58882;52.170;5.386;2023-08-31T07:27:02;23.50;46.80
70807;DHT22;58882;52.170;5.386;2023-08-31T07:29:29;23.60;46.90
70807;DHT22;58882;52.170;5.386;2023-08-31T07:31:56;23.70;46.80
70807;DHT22;58882;52.170;5.386;2023-08-31T07:34:23;23.80;46.50
70807;DHT22;58882;52.170;5.386;2023-08-31T07:36:50;23.80;46.30
70807;DHT22;58882;52.170;5.386;2023-08-31T07:39:17;23.70;46.20
70807;DHT22;58882;52.170;5.386;2023-08-31T07:41:44;23.70;46.50
70807;DHT22;58882;52.170;5.386;2023-08-31T07:44:11;23.60;46.60
70807;DHT22;58882;52.170;5.386;2023-08-31T07:46:38;23.80;46.60
70807;DHT22;58882;52.170;5.386;2023-08-31T07:49:05;24.10;46.60
70807;DHT22;58882;52.170;5.386;2023-08-31T07:51:31;24.50;47.00
70807;DHT22;58882;52.170;5.386;2023-08-31T07:53:59;24.80;46.90
70807;DHT22;58882;52.170;5.386;2023-08-31T07:56:26;24.90;46.70
70807;DHT22;58882;52.170;5.386;2023-08-31T07:58:53;24.80;46.40
70807;DHT22;58882;52.170;5.386;2023-08-31T08:01:20;24.70;46.90
70807;DHT22;58882;52.170;5.386;2023-08-31T08:03:47;24.50;47.10
70807;DHT22;58882;52.170;5.386;2023-08-31T08:06:14;24.30;47.70
70807;DHT22;58882;52.170;5.386;2023-08-31T08:08:40;24.20;48.30
70807;DHT22;58882;52.170;5.386;2023-08-31T08:11:07;24.10;48.40
70807;DHT22;58882;52.170;5.386;2023-08-31T08:13:34;24.10;48.80
70807;DHT22;58882;52.170;5.386;2023-08-31T08:16:01;24.10;49.40
70807;DHT22;58882;52.170;5.386;2023-08-31T08:18:29;24.00;48.90
70807;DHT22;58882;52.170;5.386;2023-08-31T08:20:57;24.10;49.10
70807;DHT22;58882;52.170;5.386;2023-08-31T08:23:24;24.10;49.10
70807;DHT22;58882;52.170;5.386;2023-08-31T08:25:51;24.40;48.80
70807;DHT22;58882;52.170;5.386;2023-08-31T08:28:17;24.70;48.50
70807;DHT22;58882;52.170;5.386;2023-08-31T08:30:44;25.00;47.70
70807;DHT22;58882;52.170;5.386;2023-08-31T08:33:11;25.10;47.80
70807;DHT22;58882;52.170;5.386;2023-08-31T08:35:39;25.00;47.50
70807;DHT22;58882;52.170;5.386;2023-08-31T08:38:05;24.90;47.60
70807;DHT22;58882;52.170;5.386;2023-08-31T08:40:33;24.70;47.90
70807;DHT22;58882;52.170;5.386;2023-08-31T08:43:01;24.60;48.30
70807;DHT22;58882;52.170;5.386;2023-08-31T08:45:36;24.40;48.80
70807;DHT22;58882;52.170;5.386;2023-08-31T08:48:05;24.30;49.00
70807;DHT22;58882;52.170;5.386;2023-08-31T08:50:33;24.20;49.70
70807;DHT22;58882;52.170;5.386;2023-08-31T08:53:04;24.20;49.80
70807;DHT22;58882;52.170;5.386;2023-08-31T08:55:32;24.50;48.90
70807;DHT22;58882;52.170;5.386;2023-08-31T08:57:59;24.90;48.60
70807;DHT22;58882;52.170;5.386;2023-08-31T09:00:27;25.30;48.40
70807;DHT22;58882;52.170;5.386;2023-08-31T09:02:55;25.60;48.80
70807;DHT22;58882;52.170;5.386;2023-08-31T09:05:23;25.80;47.80
70807;DHT22;58882;52.170;5.386;2023-08-31T09:08:09;26.00;47.60
70807;DHT22;58882;52.170;5.386;2023-08-31T09:10:41;26.30;46.90
70807;DHT22;58882;52.170;5.386;2023-08-31T09:13:15;26.70;46.30
70807;DHT22;58882;52.170;5.386;2023-08-31T09:15:47;26.70;46.20
70807;DHT22;58882;52.170;5.386;2023-08-31T09:18:23;26.60;45.80
70807;DHT22;58882;52.170;5.386;2023-08-31T09:20:51;26.40;46.00
70807;DHT22;58882;52.170;5.386;2023-08-31T09:23:18;26.20;46.60
70807;DHT22;58882;52.170;5.386;2023-08-31T09:25:53;26.00;47.10
70807;DHT22;58882;52.170;5.386;2023-08-31T09:28:22;25.90;47.30
70807;DHT22;58882;52.170;5.386;2023-08-31T09:30:50;25.80;47.20
70807;DHT22;58882;52.170;5.386;2023-08-31T09:33:18;25.70;47.00
70807;DHT22;58882;52.170;5.386;2023-08-31T09:35:53;25.50;47.40
70807;DHT22;58882;52.170;5.386;2023-08-31T09:38:21;25.40;47.20
70807;DHT22;58882;52.170;5.386;2023-08-31T09:40:47;25.20;47.60
70807;DHT22;58882;52.170;5.386;2023-08-31T09:43:22;25.10;48.10
70807;DHT22;58882;52.170;5.386;2023-08-31T09:45:50;25.20;48.60
70807;DHT22;58882;52.170;5.386;2023-08-31T09:48:19;25.70;48.60
70807;DHT22;58882;52.170;5.386;2023-08-31T09:50:47;26.10;47.50
70807;DHT22;58882;52.170;5.386;2023-08-31T09:53:16;26.60;46.30
70807;DHT22;58882;52.170;5.386;2023-08-31T09:55:44;27.10;44.90
70807;DHT22;58882;52.170;5.386;2023-08-31T09:58:11;27.40;44.20
70807;DHT22;58882;52.170;5.386;2023-08-31T10:00:43;27.70;43.60
70807;DHT22;58882;52.170;5.386;2023-08-31T10:03:10;28.00;42.50
70807;DHT22;58882;52.170;5.386;2023-08-31T10:05:44;28.30;42.40
70807;DHT22;58882;52.170;5.386;2023-08-31T10:08:12;28.50;41.90
70807;DHT22;58882;52.170;5.386;2023-08-31T10:10:40;28.60;41.40
70807;DHT22;58882;52.170;5.386;2023-08-31T10:13:08;28.70;41.10
70807;DHT22;58882;52.170;5.386;2023-08-31T10:15:36;28.80;40.50
70807;DHT22;58882;52.170;5.386;2023-08-31T10:18:05;28.90;40.60
70807;DHT22;58882;52.170;5.386;2023-08-31T10:20:33;28.90;40.60
70807;DHT22;58882;52.170;5.386;2023-08-31T10:23:05;28.80;41.20
70807;DHT22;58882;52.170;5.386;2023-08-31T10:28:27;28.30;42.30
70807;DHT22;58882;52.170;5.386;2023-08-31T10:31:04;28.30;42.70
70807;DHT22;58882;52.170;5.386;2023-08-31T10:33:58;28.10;42.90
70807;DHT22;58882;52.170;5.386;2023-08-31T10:36:44;28.20;42.40
70807;DHT22;58882;52.170;5.386;2023-08-31T10:39:13;28.40;41.60
70807;DHT22;58882;52.170;5.386;2023-08-31T10:41:52;28.60;40.50
70807;DHT22;58882;52.170;5.386;2023-08-31T10:46:46;29.00;39.50
70807;DHT22;58882;52.170;5.386;2023-08-31T10:49:15;29.00;39.00
70807;DHT22;58882;52.170;5.386;2023-08-31T10:51:44;29.10;38.80
70807;DHT22;58882;52.170;5.386;2023-08-31T10:54:30;29.20;38.20
70807;DHT22;58882;52.170;5.386;2023-08-31T10:59:25;29.40;37.40
70807;DHT22;58882;52.170;5.386;2023-08-31T11:01:56;29.40;37.40
70807;DHT22;58882;52.170;5.386;2023-08-31T11:04:27;29.40;37.10
70807;DHT22;58882;52.170;5.386;2023-08-31T11:09:45;29.40;36.60
70807;DHT22;58882;52.170;5.386;2023-08-31T11:12:13;29.40;36.90
70807;DHT22;58882;52.170;5.386;2023-08-31T11:14:40;29.40;36.60
70807;DHT22;58882;52.170;5.386;2023-08-31T11:17:08;29.40;36.70
70807;DHT22;58882;52.170;5.386;2023-08-31T11:19:37;29.50;37.00
70807;DHT22;58882;52.170;5.386;2023-08-31T11:22:04;29.50;36.50
70807;DHT22;58882;52.170;5.386;2023-08-31T11:24:32;29.50;36.10
70807;DHT22;58882;52.170;5.386;2023-08-31T11:26:59;29.50;36.00
70807;DHT22;58882;52.170;5.386;2023-08-31T11:29:30;29.50;36.30
70807;DHT22;58882;52.170;5.386;2023-08-31T11:31:57;29.50;36.40
70807;DHT22;58882;52.170;5.386;2023-08-31T11:34:27;29.50;36.60
70807;DHT22;58882;52.170;5.386;2023-08-31T11:36:54;29.50;36.20
70807;DHT22;58882;52.170;5.386;2023-08-31T11:39:22;29.50;35.40
70807;DHT22;58882;52.170;5.386;2023-08-31T11:41:50;29.40;35.80
70807;DHT22;58882;52.170;5.386;2023-08-31T11:44:18;29.40;36.70
70807;DHT22;58882;52.170;5.386;2023-08-31T11:46:46;29.40;36.80
70807;DHT22;58882;52.170;5.386;2023-08-31T11:49:18;29.30;36.00
70807;DHT22;58882;52.170;5.386;2023-08-31T11:51:46;29.30;36.40
70807;DHT22;58882;52.170;5.386;2023-08-31T11:54:17;29.30;35.90
70807;DHT22;58882;52.170;5.386;2023-08-31T11:56:45;29.20;36.40
70807;DHT22;58882;52.170;5.386;2023-08-31T11:59:16;29.20;36.40
70807;DHT22;58882;52.170;5.386;2023-08-31T12:01:46;29.20;36.50
70807;DHT22;58882;52.170;5.386;2023-08-31T12:04:21;29.10;36.20
70807;DHT22;58882;52.170;5.386;2023-08-31T12:06:52;29.20;36.50
70807;DHT22;58882;52.170;5.386;2023-08-31T12:09:22;29.10;35.80
70807;DHT22;58882;52.170;5.386;2023-08-31T12:11:50;29.10;36.10
70807;DHT22;58882;52.170;5.386;2023-08-31T12:14:22;29.00;36.40
70807;DHT22;58882;52.170;5.386;2023-08-31T12:16:50;29.00;36.50
70807;DHT22;58882;52.170;5.386;2023-08-31T12:19:17;29.00;36.40
70807;DHT22;58882;52.170;5.386;2023-08-31T12:21:46;28.90;36.00
70807;DHT22;58882;52.170;5.386;2023-08-31T12:24:13;28.90;36.20
70807;DHT22;58882;52.170;5.386;2023-08-31T12:26:40;28.80;36.00
70807;DHT22;58882;52.170;5.386;2023-08-31T12:29:07;28.70;35.20
70807;DHT22;58882;52.170;5.386;2023-08-31T12:31:35;28.70;36.50
70807;DHT22;58882;52.170;5.386;2023-08-31T12:34:02;28.70;35.70
70807;DHT22;58882;52.170;5.386;2023-08-31T12:36:33;28.70;35.60
70807;DHT22;58882;52.170;5.386;2023-08-31T12:39:00;28.60;35.60
70807;DHT22;58882;52.170;5.386;2023-08-31T12:41:28;28.60;35.80
70807;DHT22;58882;52.170;5.386;2023-08-31T12:43:55;28.60;36.00
70807;DHT22;58882;52.170;5.386;2023-08-31T12:46:23;28.50;36.20
70807;DHT22;58882;52.170;5.386;2023-08-31T12:48:50;28.40;36.10
70807;DHT22;58882;52.170;5.386;2023-08-31T12:51:17;28.40;36.20
70807;DHT22;58882;52.170;5.386;2023-08-31T12:53:44;28.30;36.30
70807;DHT22;58882;52.170;5.386;2023-08-31T12:56:13;28.30;36.60
70807;DHT22;58882;52.170;5.386;2023-08-31T12:58:41;28.20;36.50
70807;DHT22;58882;52.170;5.386;2023-08-31T13:01:08;28.20;36.50
70807;DHT22;58882;52.170;5.386;2023-08-31T13:03:35;28.10;36.70
70807;DHT22;58882;52.170;5.386;2023-08-31T13:06:02;28.10;36.60
70807;DHT22;58882;52.170;5.386;2023-08-31T13:08:29;28.00;36.70
70807;DHT22;58882;52.170;5.386;2023-08-31T13:10:56;28.00;37.10
70807;DHT22;58882;52.170;5.386;2023-08-31T13:13:22;27.90;36.90
70807;DHT22;58882;52.170;5.386;2023-08-31T13:15:50;27.90;37.00
70807;DHT22;58882;52.170;5.386;2023-08-31T13:18:17;27.80;36.20
70807;DHT22;58882;52.170;5.386;2023-08-31T13:20:51;27.80;36.40
70807;DHT22;58882;52.170;5.386;2023-08-31T13:23:19;27.70;36.60
70807;DHT22;58882;52.170;5.386;2023-08-31T13:25:46;27.70;36.70
70807;DHT22;58882;52.170;5.386;2023-08-31T13:28:13;27.60;36.50
70807;DHT22;58882;52.170;5.386;2023-08-31T13:30:40;27.60;36.70
70807;DHT22;58882;52.170;5.386;2023-08-31T13:33:09;27.50;36.70
70807;DHT22;58882;52.170;5.386;2023-08-31T13:35:36;27.40;36.70
70807;DHT22;58882;52.170;5.386;2023-08-31T13:38:03;27.30;36.70
70807;DHT22;58882;52.170;5.386;2023-08-31T13:40:30;27.30;36.90
70807;DHT22;58882;52.170;5.386;2023-08-31T13:42:59;27.20;36.80
70807;DHT22;58882;52.170;5.386;2023-08-31T13:45:30;27.10;36.60
70807;DHT22;58882;52.170;5.386;2023-08-31T13:47:58;27.10;37.00
70807;DHT22;58882;52.170;5.386;2023-08-31T13:50:30;27.00;36.90
70807;DHT22;58882;52.170;5.386;2023-08-31T13:52:57;27.00;37.10
70807;DHT22;58882;52.170;5.386;2023-08-31T13:55:24;26.90;36.50
70807;DHT22;58882;52.170;5.386;2023-08-31T13:57:52;26.90;36.80
70807;DHT22;58882;52.170;5.386;2023-08-31T14:00:19;26.80;36.90
70807;DHT22;58882;52.170;5.386;2023-08-31T14:02:46;26.70;37.10
70807;DHT22;58882;52.170;5.386;2023-08-31T14:05:13;26.70;36.80
70807;DHT22;58882;52.170;5.386;2023-08-31T14:07:41;26.60;36.70
70807;DHT22;58882;52.170;5.386;2023-08-31T14:10:08;26.50;36.30
70807;DHT22;58882;52.170;5.386;2023-08-31T14:12:35;26.50;36.10
70807;DHT22;58882;52.170;5.386;2023-08-31T14:15:02;26.50;35.80
70807;DHT22;58882;52.170;5.386;2023-08-31T14:17:31;26.40;35.80
70807;DHT22;58882;52.170;5.386;2023-08-31T14:19:59;26.40;35.70
70807;DHT22;58882;52.170;5.386;2023-08-31T14:22:27;26.40;35.60
70807;DHT22;58882;52.170;5.386;2023-08-31T14:24:55;26.30;35.90
70807;DHT22;58882;52.170;5.386;2023-08-31T14:27:22;26.30;35.80
70807;DHT22;58882;52.170;5.386;2023-08-31T14:29:50;26.20;35.80
70807;DHT22;58882;52.170;5.386;2023-08-31T14:32:16;26.10;35.80
70807;DHT22;58882;52.170;5.386;2023-08-31T14:34:43;26.10;36.10
70807;DHT22;58882;52.170;5.386;2023-08-31T14:37:10;26.10;36.10
70807;DHT22;58882;52.170;5.386;2023-08-31T14:39:37;26.00;36.30
70807;DHT22;58882;52.170;5.386;2023-08-31T14:42:04;26.00;36.50
70807;DHT22;58882;52.170;5.386;2023-08-31T14:44:31;25.90;37.20
70807;DHT22;58882;52.170;5.386;2023-08-31T14:46:58;25.90;37.10
70807;DHT22;58882;52.170;5.386;2023-08-31T14:49:24;25.90;37.70
70807;DHT22;58882;52.170;5.386;2023-08-31T14:51:52;25.80;37.80
70807;DHT22;58882;52.170;5.386;2023-08-31T14:54:18;25.80;37.50
70807;DHT22;58882;52.170;5.386;2023-08-31T14:56:45;25.80;37.70
70807;DHT22;58882;52.170;5.386;2023-08-31T14:59:12;25.80;38.30
70807;DHT22;58882;52.170;5.386;2023-08-31T15:01:39;25.80;38.10
70807;DHT22;58882;52.170;5.386;2023-08-31T15:04:06;25.70;40.40
70807;DHT22;58882;52.170;5.386;2023-08-31T15:06:33;25.70;40.20
70807;DHT22;58882;52.170;5.386;2023-08-31T15:09:00;25.60;39.90
70807;DHT22;58882;52.170;5.386;2023-08-31T15:11:28;25.50;40.60
70807;DHT22;58882;52.170;5.386;2023-08-31T15:13:55;25.40;40.80
70807;DHT22;58882;52.170;5.386;2023-08-31T15:16:23;25.40;40.80
70807;DHT22;58882;52.170;5.386;2023-08-31T15:18:50;25.30;40.10
70807;DHT22;58882;52.170;5.386;2023-08-31T15:21:18;25.10;40.20
70807;DHT22;58882;52.170;5.386;2023-08-31T15:23:45;25.00;41.30
70807;DHT22;58882;52.170;5.386;2023-08-31T15:26:12;25.00;41.20
70807;DHT22;58882;52.170;5.386;2023-08-31T15:28:44;24.90;42.50
70807;DHT22;58882;52.170;5.386;2023-08-31T15:31:14;24.80;43.00
70807;DHT22;58882;52.170;5.386;2023-08-31T15:33:43;24.70;43.60
70807;DHT22;58882;52.170;5.386;2023-08-31T15:36:10;24.70;42.40
70807;DHT22;58882;52.170;5.386;2023-08-31T15:38:37;24.60;43.00
70807;DHT22;58882;52.170;5.386;2023-08-31T15:41:06;24.50;42.70
70807;DHT22;58882;52.170;5.386;2023-08-31T15:43:34;24.50;43.50
70807;DHT22;58882;52.170;5.386;2023-08-31T15:46:02;24.50;42.60
70807;DHT22;58882;52.170;5.386;2023-08-31T15:48:30;24.40;42.80
70807;DHT22;58882;52.170;5.386;2023-08-31T15:50:58;24.40;42.10
70807;DHT22;58882;52.170;5.386;2023-08-31T15:53:25;24.30;43.00
70807;DHT22;58882;52.170;5.386;2023-08-31T15:55:55;24.30;42.50